sensor_id;sensor_type;location;lat;lon;timestamp;P1;durP1;ratioP1;P2;durP2;ratioP2
29210;SDS011;16250;49.932;10.980;2023-03-01T00:00:35;27.33;;;24.48;;
29210;SDS011;16250;49.932;10.980;2023-03-01T00:03:01;26.67;;;23.40;;
29210;SDS011;16250;49.932;10.980;2023-03-01T00:05:26;27.30;;;24.40;;
29210;SDS011;16250;49.932;10.980;2023-03-01T00:07:54;26.83;;;24.13;;
29210;SDS011;16250;49.932;10.980;2023-03-01T00:10:20;28.08;;;25.13;;
29210;SDS011;16250;49.932;10.980;2023-03-01T00:12:45;27.60;;;24.80;;
29210;SDS011;16250;49.932;10.980;2023-03-01T00:15:10;27.95;;;24.25;;
29210;SDS011;16250;49.932;10.980;2023-03-01T00:17:36;27.65;;;24.70;;
29210;SDS011;16250;49.932;10.980;2023-03-01T00:20:02;28.70;;;25.60;;
29210;SDS011;16250;49.932;10.980;2023-03-01T00:22:28;28.05;;;25.13;;
29210;SDS011;16250;49.932;10.980;2023-03-01T00:24:53;29.17;;;26.27;;
29210;SDS011;16250;49.932;10.980;2023-03-01T00:27:19;29.73;;;26.58;;
29210;SDS011;16250;49.932;10.980;2023-03-01T00:29:44;28.75;;;25.67;;
29210;SDS011;16250;49.932;10.980;2023-03-01T00:32:09;28.40;;;25.60;;
29210;SDS011;16250;49.932;10.980;2023-03-01T00:34:35;29.58;;;25.83;;
29210;SDS011;16250;49.932;10.980;2023-03-01T00:37:00;29.38;;;25.20;;
29210;SDS011;16250;49.932;10.980;2023-03-01T00:39:30;29.60;;;26.35;;
29210;SDS011;16250;49.932;10.980;2023-03-01T00:41:56;29.13;;;26.13;;
29210;SDS011;16250;49.932;10.980;2023-03-01T00:44:22;28.65;;;25.75;;
29210;SDS011;16250;49.932;10.980;2023-03-01T00:46:48;28.10;;;25.10;;
29210;SDS011;16250;49.932;10.980;2023-03-01T00:49:14;31.48;;;28.27;;
29210;SDS011;16250;49.932;10.980;2023-03-01T00:51:39;29.88;;;26.80;;
29210;SDS011;16250;49.932;10.980;2023-03-01T00:54:07;29.75;;;26.75;;
29210;SDS011;16250;49.932;10.980;2023-03-01T00:56:33;29.42;;;26.33;;
29210;SDS011;16250;49.932;10.980;2023-03-01T00:58:59;29.33;;;26.33;;
29210;SDS011;16250;49.932;10.980;2023-03-01T01:01:26;28.58;;;25.67;;
29210;SDS011;16250;49.932;10.980;2023-03-01T01:03:59;28.20;;;25.30;;
29210;SDS011;16250;49.932;10.980;2023-03-01T01:06:33;29.23;;;26.15;;
29210;SDS011;16250;49.932;10.980;2023-03-01T01:09:05;30.52;;;27.33;;
29210;SDS011;16250;49.932;10.980;2023-03-01T01:11:31;31.67;;;28.27;;
29210;SDS011;16250;49.932;10.980;2023-03-01T01:13:57;32.47;;;29.10;;
29210;SDS011;16250;49.932;10.980;2023-03-01T01:16:24;30.90;;;27.83;;
29210;SDS011;16250;49.932;10.980;2023-03-01T01:18:50;31.45;;;28.30;;
29210;SDS011;16250;49.932;10.980;2023-03-01T01:21:17;31.85;;;28.70;;
29210;SDS011;16250;49.932;10.980;2023-03-01T01:23:44;31.10;;;27.73;;
29210;SDS011;16250;49.932;10.980;2023-03-01T01:26:11;32.25;;;28.90;;
29210;SDS011;16250;49.932;10.980;2023-03-01T01:28:38;33.95;;;30.40;;
29210;SDS011;16250;49.932;10.980;2023-03-01T01:31:04;29.88;;;26.80;;
29210;SDS011;16250;49.932;10.980;2023-03-01T01:33:30;30.65;;;27.35;;
29210;SDS011;16250;49.932;10.980;2023-03-01T01:35:56;28.90;;;26.02;;
29210;SDS011;16250;49.932;10.980;2023-03-01T01:38:21;30.92;;;27.67;;
29210;SDS011;16250;49.932;10.980;2023-03-01T01:40:47;28.55;;;25.65;;
29210;SDS011;16250;49.932;10.980;2023-03-01T01:43:22;32.15;;;23.50;;
29210;SDS011;16250;49.932;10.980;2023-03-01T01:48:24;31.17;;;22.38;;
29210;SDS011;16250;49.932;10.980;2023-03-01T01:51:05;29.58;;;26.48;;
29210;SDS011;16250;49.932;10.980;2023-03-01T01:53:32;29.70;;;26.42;;
29210;SDS011;16250;49.932;10.980;2023-03-01T01:55:58;29.30;;;26.13;;
29210;SDS011;16250;49.932;10.980;2023-03-01T01:58:25;27.73;;;24.83;;
29210;SDS011;16250;49.932;10.980;2023-03-01T02:00:52;31.05;;;26.85;;
29210;SDS011;16250;49.932;10.980;2023-03-01T02:03:25;29.00;;;26.00;;
29210;SDS011;16250;49.932;10.980;2023-03-01T02:06:06;29.38;;;26.35;;
29210;SDS011;16250;49.932;10.980;2023-03-01T02:08:47;29.08;;;26.02;;
29210;SDS011;16250;49.932;10.980;2023-03-01T02:11:13;29.90;;;26.67;;
29210;SDS011;16250;49.932;10.980;2023-03-01T02:13:42;30.40;;;22.48;;
29210;SDS011;16250;49.932;10.980;2023-03-01T02:16:08;30.27;;;26.92;;
29210;SDS011;16250;49.932;10.980;2023-03-01T02:18:35;29.80;;;26.60;;
29210;SDS011;16250;49.932;10.980;2023-03-01T02:21:05;31.55;;;22.35;;
29210;SDS011;16250;49.932;10.980;2023-03-01T02:23:33;29.23;;;26.10;;
29210;SDS011;16250;49.932;10.980;2023-03-01T02:28:33;30.60;;;27.48;;
29210;SDS011;16250;49.932;10.980;2023-03-01T02:31:00;30.73;;;27.55;;
29210;SDS011;16250;49.932;10.980;2023-03-01T02:33:44;31.05;;;23.40;;
29210;SDS011;16250;49.932;10.980;2023-03-01T02:36:12;31.13;;;27.92;;
29210;SDS011;16250;49.932;10.980;2023-03-01T02:38:40;32.25;;;28.75;;
29210;SDS011;16250;49.932;10.980;2023-03-01T02:41:07;30.58;;;27.60;;
29210;SDS011;16250;49.932;10.980;2023-03-01T02:43:33;31.33;;;28.13;;
29210;SDS011;16250;49.932;10.980;2023-03-01T02:46:03;33.85;;;30.42;;
29210;SDS011;16250;49.932;10.980;2023-03-01T02:48:45;32.22;;;29.02;;
29210;SDS011;16250;49.932;10.980;2023-03-01T02:51:31;31.73;;;28.63;;
29210;SDS011;16250;49.932;10.980;2023-03-01T02:54:07;32.97;;;29.63;;
29210;SDS011;16250;49.932;10.980;2023-03-01T02:56:53;31.35;;;28.30;;
29210;SDS011;16250;49.932;10.980;2023-03-01T02:59:21;29.25;;;24.73;;
29210;SDS011;16250;49.932;10.980;2023-03-01T03:01:49;32.88;;;29.40;;
29210;SDS011;16250;49.932;10.980;2023-03-01T03:04:16;31.35;;;28.17;;
29210;SDS011;16250;49.932;10.980;2023-03-01T03:06:45;31.85;;;28.55;;
29210;SDS011;16250;49.932;10.980;2023-03-01T03:09:11;29.70;;;26.70;;
29210;SDS011;16250;49.932;10.980;2023-03-01T03:11:37;29.52;;;21.95;;
29210;SDS011;16250;49.932;10.980;2023-03-01T03:14:04;29.83;;;26.63;;
29210;SDS011;16250;49.932;10.980;2023-03-01T03:16:31;29.85;;;26.95;;
29210;SDS011;16250;49.932;10.980;2023-03-01T03:18:56;29.92;;;26.95;;
29210;SDS011;16250;49.932;10.980;2023-03-01T03:21:30;30.95;;;27.60;;
29210;SDS011;16250;49.932;10.980;2023-03-01T03:23:58;30.10;;;27.00;;
29210;SDS011;16250;49.932;10.980;2023-03-01T03:26:24;29.65;;;22.33;;
29210;SDS011;16250;49.932;10.980;2023-03-01T03:28:49;30.17;;;27.17;;
29210;SDS011;16250;49.932;10.980;2023-03-01T03:31:14;29.75;;;26.63;;
29210;SDS011;16250;49.932;10.980;2023-03-01T03:33:40;29.90;;;26.88;;
29210;SDS011;16250;49.932;10.980;2023-03-01T03:36:05;30.90;;;22.10;;
29210;SDS011;16250;49.932;10.980;2023-03-01T03:38:31;31.55;;;26.77;;
29210;SDS011;16250;49.932;10.980;2023-03-01T03:43:27;29.40;;;26.42;;
29210;SDS011;16250;49.932;10.980;2023-03-01T03:45:53;29.63;;;26.60;;
29210;SDS011;16250;49.932;10.980;2023-03-01T03:48:19;27.67;;;24.85;;
29210;SDS011;16250;49.932;10.980;2023-03-01T03:50:49;28.13;;;20.92;;
29210;SDS011;16250;49.932;10.980;2023-03-01T03:53:16;28.50;;;25.40;;
29210;SDS011;16250;49.932;10.980;2023-03-01T03:55:42;30.02;;;22.15;;
29210;SDS011;16250;49.932;10.980;2023-03-01T03:58:09;34.25;;;22.92;;
29210;SDS011;16250;49.932;10.980;2023-03-01T04:00:36;30.00;;;26.80;;
29210;SDS011;16250;49.932;10.980;2023-03-01T04:03:03;31.90;;;28.50;;
29210;SDS011;16250;49.932;10.980;2023-03-01T04:05:29;29.17;;;26.17;;
29210;SDS011;16250;49.932;10.980;2023-03-01T04:07:55;29.48;;;26.38;;
29210;SDS011;16250;49.932;10.980;2023-03-01T04:10:27;31.60;;;28.15;;
29210;SDS011;16250;49.932;10.980;2023-03-01T04:12:53;31.98;;;28.63;;
29210;SDS011;16250;49.932;10.980;2023-03-01T04:15:21;32.20;;;28.80;;
29210;SDS011;16250;49.932;10.980;2023-03-01T04:17:49;30.88;;;27.77;;
29210;SDS011;16250;49.932;10.980;2023-03-01T04:20:16;32.42;;;22.33;;
29210;SDS011;16250;49.932;10.980;2023-03-01T04:22:49;30.40;;;27.10;;
29210;SDS011;16250;49.932;10.980;2023-03-01T04:25:41;30.55;;;26.30;;
29210;SDS011;16250;49.932;10.980;2023-03-01T04:28:11;33.22;;;22.48;;
29210;SDS011;16250;49.932;10.980;2023-03-01T04:30:37;30.30;;;27.17;;
29210;SDS011;16250;49.932;10.980;2023-03-01T04:33:07;30.75;;;27.30;;
29210;SDS011;16250;49.932;10.980;2023-03-01T04:35:34;30.73;;;27.15;;
29210;SDS011;16250;49.932;10.980;2023-03-01T04:38:00;30.05;;;26.95;;
29210;SDS011;16250;49.932;10.980;2023-03-01T04:40:25;29.77;;;21.30;;
29210;SDS011;16250;49.932;10.980;2023-03-01T04:42:51;31.83;;;27.02;;
29210;SDS011;16250;49.932;10.980;2023-03-01T04:45:17;31.02;;;27.77;;
29210;SDS011;16250;49.932;10.980;2023-03-01T04:47:42;34.10;;;22.65;;
29210;SDS011;16250;49.932;10.980;2023-03-01T04:50:10;30.45;;;26.98;;
29210;SDS011;16250;49.932;10.980;2023-03-01T04:52:36;30.02;;;23.77;;
29210;SDS011;16250;49.932;10.980;2023-03-01T04:55:01;29.05;;;26.02;;
29210;SDS011;16250;49.932;10.980;2023-03-01T04:57:27;31.40;;;21.08;;
29210;SDS011;16250;49.932;10.980;2023-03-01T04:59:52;30.05;;;25.70;;
29210;SDS011;16250;49.932;10.980;2023-03-01T05:02:18;31.80;;;24.38;;
29210;SDS011;16250;49.932;10.980;2023-03-01T05:04:43;28.38;;;25.13;;
29210;SDS011;16250;49.932;10.980;2023-03-01T05:07:08;29.23;;;26.05;;
29210;SDS011;16250;49.932;10.980;2023-03-01T05:09:34;29.98;;;21.23;;
29210;SDS011;16250;49.932;10.980;2023-03-01T05:11:59;28.38;;;24.60;;
29210;SDS011;16250;49.932;10.980;2023-03-01T05:14:25;28.13;;;24.00;;
29210;SDS011;16250;49.932;10.980;2023-03-01T05:16:50;31.73;;;25.42;;
29210;SDS011;16250;49.932;10.980;2023-03-01T05:19:15;29.33;;;26.20;;
29210;SDS011;16250;49.932;10.980;2023-03-01T05:21:44;31.75;;;21.83;;
29210;SDS011;16250;49.932;10.980;2023-03-01T05:24:28;29.77;;;26.00;;
29210;SDS011;16250;49.932;10.980;2023-03-01T05:26:55;29.25;;;25.95;;
29210;SDS011;16250;49.932;10.980;2023-03-01T05:29:24;34.78;;;22.10;;
29210;SDS011;16250;49.932;10.980;2023-03-01T05:31:59;31.00;;;27.73;;
29210;SDS011;16250;49.932;10.980;2023-03-01T05:34:32;29.73;;;26.65;;
29210;SDS011;16250;49.932;10.980;2023-03-01T05:37:00;33.00;;;22.70;;
29210;SDS011;16250;49.932;10.980;2023-03-01T05:39:26;30.33;;;26.35;;
29210;SDS011;16250;49.932;10.980;2023-03-01T05:41:53;32.30;;;24.85;;
29210;SDS011;16250;49.932;10.980;2023-03-01T05:44:19;29.42;;;26.27;;
29210;SDS011;16250;49.932;10.980;2023-03-01T05:46:46;31.40;;;22.05;;
29210;SDS011;16250;49.932;10.980;2023-03-01T05:49:12;30.05;;;26.90;;
29210;SDS011;16250;49.932;10.980;2023-03-01T05:51:38;29.10;;;26.00;;
29210;SDS011;16250;49.932;10.980;2023-03-01T05:54:07;31.23;;;27.90;;
29210;SDS011;16250;49.932;10.980;2023-03-01T05:56:34;29.55;;;26.02;;
29210;SDS011;16250;49.932;10.980;2023-03-01T05:59:00;32.95;;;23.30;;
29210;SDS011;16250;49.932;10.980;2023-03-01T06:01:26;30.30;;;27.30;;
29210;SDS011;16250;49.932;10.980;2023-03-01T06:03:51;31.65;;;28.00;;
29210;SDS011;16250;49.932;10.980;2023-03-01T06:06:16;34.33;;;23.58;;
29210;SDS011;16250;49.932;10.980;2023-03-01T06:08:42;30.20;;;27.10;;
29210;SDS011;16250;49.932;10.980;2023-03-01T06:11:07;30.60;;;26.75;;
29210;SDS011;16250;49.932;10.980;2023-03-01T06:13:33;34.30;;;22.88;;
29210;SDS011;16250;49.932;10.980;2023-03-01T06:15:58;30.83;;;27.52;;
29210;SDS011;16250;49.932;10.980;2023-03-01T06:18:23;31.45;;;26.98;;
29210;SDS011;16250;49.932;10.980;2023-03-01T06:20:53;32.33;;;25.52;;
29210;SDS011;16250;49.932;10.980;2023-03-01T06:23:18;30.67;;;27.40;;
29210;SDS011;16250;49.932;10.980;2023-03-01T06:25:44;31.42;;;28.02;;
29210;SDS011;16250;49.932;10.980;2023-03-01T06:28:09;34.97;;;25.13;;
29210;SDS011;16250;49.932;10.980;2023-03-01T06:30:34;33.20;;;28.90;;
29210;SDS011;16250;49.932;10.980;2023-03-01T06:33:00;31.63;;;28.27;;
29210;SDS011;16250;49.932;10.980;2023-03-01T06:35:26;31.02;;;27.83;;
29210;SDS011;16250;49.932;10.980;2023-03-01T06:37:55;32.20;;;28.77;;
29210;SDS011;16250;49.932;10.980;2023-03-01T06:40:20;33.78;;;23.33;;
29210;SDS011;16250;49.932;10.980;2023-03-01T06:42:49;32.25;;;28.75;;
29210;SDS011;16250;49.932;10.980;2023-03-01T06:45:15;31.42;;;28.13;;
29210;SDS011;16250;49.932;10.980;2023-03-01T06:47:41;33.03;;;29.08;;
29210;SDS011;16250;49.932;10.980;2023-03-01T06:50:07;29.30;;;26.20;;
29210;SDS011;16250;49.932;10.980;2023-03-01T06:52:33;31.52;;;28.23;;
29210;SDS011;16250;49.932;10.980;2023-03-01T06:54:58;31.50;;;28.20;;
29210;SDS011;16250;49.932;10.980;2023-03-01T06:57:24;31.48;;;28.08;;
29210;SDS011;16250;49.932;10.980;2023-03-01T06:59:49;38.08;;;24.52;;
29210;SDS011;16250;49.932;10.980;2023-03-01T07:02:14;30.70;;;27.40;;
29210;SDS011;16250;49.932;10.980;2023-03-01T07:04:40;31.27;;;27.98;;
29210;SDS011;16250;49.932;10.980;2023-03-01T07:07:06;36.15;;;23.65;;
29210;SDS011;16250;49.932;10.980;2023-03-01T07:09:32;31.42;;;28.13;;
29210;SDS011;16250;49.932;10.980;2023-03-01T07:11:57;31.48;;;28.08;;
29210;SDS011;16250;49.932;10.980;2023-03-01T07:14:23;36.15;;;22.35;;
29210;SDS011;16250;49.932;10.980;2023-03-01T07:16:54;31.13;;;27.50;;
29210;SDS011;16250;49.932;10.980;2023-03-01T07:19:20;31.60;;;28.30;;
29210;SDS011;16250;49.932;10.980;2023-03-01T07:21:47;31.30;;;27.75;;
29210;SDS011;16250;49.932;10.980;2023-03-01T07:24:12;32.50;;;28.80;;
29210;SDS011;16250;49.932;10.980;2023-03-01T07:26:38;29.95;;;26.85;;
29210;SDS011;16250;49.932;10.980;2023-03-01T07:29:04;30.98;;;27.70;;
29210;SDS011;16250;49.932;10.980;2023-03-01T07:31:31;29.58;;;26.20;;
29210;SDS011;16250;49.932;10.980;2023-03-01T07:33:56;30.30;;;27.10;;
29210;SDS011;16250;49.932;10.980;2023-03-01T07:36:22;30.92;;;26.65;;
29210;SDS011;16250;49.932;10.980;2023-03-01T07:38:48;29.55;;;26.35;;
29210;SDS011;16250;49.932;10.980;2023-03-01T07:41:13;30.67;;;27.38;;
29210;SDS011;16250;49.932;10.980;2023-03-01T07:43:39;29.45;;;26.27;;
29210;SDS011;16250;49.932;10.980;2023-03-01T07:46:05;29.88;;;25.90;;
29210;SDS011;16250;49.932;10.980;2023-03-01T07:48:31;31.30;;;26.42;;
29210;SDS011;16250;49.932;10.980;2023-03-01T07:50:58;30.25;;;26.85;;
29210;SDS011;16250;49.932;10.980;2023-03-01T07:53:24;28.58;;;25.58;;
29210;SDS011;16250;49.932;10.980;2023-03-01T07:55:50;30.35;;;26.25;;
29210;SDS011;16250;49.932;10.980;2023-03-01T07:58:25;32.83;;;22.42;;
29210;SDS011;16250;49.932;10.980;2023-03-01T08:00:50;29.70;;;26.30;;
29210;SDS011;16250;49.932;10.980;2023-03-01T08:03:16;28.50;;;25.30;;
29210;SDS011;16250;49.932;10.980;2023-03-01T08:05:41;31.00;;;26.38;;
29210;SDS011;16250;49.932;10.980;2023-03-01T08:08:07;29.38;;;25.33;;
29210;SDS011;16250;49.932;10.980;2023-03-01T08:10:32;28.17;;;24.02;;
29210;SDS011;16250;49.932;10.980;2023-03-01T08:12:57;32.03;;;25.70;;
29210;SDS011;16250;49.932;10.980;2023-03-01T08:15:23;29.58;;;24.77;;
29210;SDS011;16250;49.932;10.980;2023-03-01T08:17:48;30.75;;;25.50;;
29210;SDS011;16250;49.932;10.980;2023-03-01T08:20:15;27.85;;;24.83;;
29210;SDS011;16250;49.932;10.980;2023-03-01T08:22:41;30.25;;;25.05;;
29210;SDS011;16250;49.932;10.980;2023-03-01T08:25:07;28.17;;;24.20;;
29210;SDS011;16250;49.932;10.980;2023-03-01T08:27:33;28.98;;;24.13;;
29210;SDS011;16250;49.932;10.980;2023-03-01T08:29:58;28.52;;;24.85;;
29210;SDS011;16250;49.932;10.980;2023-03-01T08:32:23;31.23;;;24.70;;
29210;SDS011;16250;49.932;10.980;2023-03-01T08:34:49;28.67;;;24.25;;
29210;SDS011;16250;49.932;10.980;2023-03-01T08:37:14;27.60;;;23.60;;
29210;SDS011;16250;49.932;10.980;2023-03-01T08:39:39;30.30;;;23.92;;
29210;SDS011;16250;49.932;10.980;2023-03-01T08:42:05;28.80;;;24.58;;
29210;SDS011;16250;49.932;10.980;2023-03-01T08:44:30;28.42;;;24.13;;
29210;SDS011;16250;49.932;10.980;2023-03-01T08:46:56;28.40;;;24.48;;
29210;SDS011;16250;49.932;10.980;2023-03-01T08:49:22;28.13;;;24.17;;
29210;SDS011;16250;49.932;10.980;2023-03-01T08:51:48;28.80;;;24.13;;
29210;SDS011;16250;49.932;10.980;2023-03-01T08:54:15;27.70;;;24.38;;
29210;SDS011;16250;49.932;10.980;2023-03-01T08:56:41;29.20;;;24.27;;
29210;SDS011;16250;49.932;10.980;2023-03-01T08:59:07;30.15;;;24.98;;
29210;SDS011;16250;49.932;10.980;2023-03-01T09:01:32;29.75;;;24.35;;
29210;SDS011;16250;49.932;10.980;2023-03-01T09:03:58;28.50;;;24.23;;
29210;SDS011;16250;49.932;10.980;2023-03-01T09:06:24;27.05;;;24.23;;
29210;SDS011;16250;49.932;10.980;2023-03-01T09:08:49;28.15;;;24.20;;
29210;SDS011;16250;49.932;10.980;2023-03-01T09:11:16;29.85;;;24.38;;
29210;SDS011;16250;49.932;10.980;2023-03-01T09:13:44;26.77;;;23.88;;
29210;SDS011;16250;49.932;10.980;2023-03-01T09:16:10;27.95;;;23.77;;
29210;SDS011;16250;49.932;10.980;2023-03-01T09:18:37;27.45;;;24.02;;
29210;SDS011;16250;49.932;10.980;2023-03-01T09:21:03;26.80;;;23.08;;
29210;SDS011;16250;49.932;10.980;2023-03-01T09:23:32;28.73;;;23.88;;
29210;SDS011;16250;49.932;10.980;2023-03-01T09:26:02;29.42;;;25.00;;
29210;SDS011;16250;49.932;10.980;2023-03-01T09:28:28;29.25;;;24.80;;
29210;SDS011;16250;49.932;10.980;2023-03-01T09:30:53;27.45;;;23.45;;
29210;SDS011;16250;49.932;10.980;2023-03-01T09:33:18;25.98;;;23.13;;
29210;SDS011;16250;49.932;10.980;2023-03-01T09:35:44;29.42;;;25.02;;
29210;SDS011;16250;49.932;10.980;2023-03-01T09:38:14;28.08;;;23.48;;
29210;SDS011;16250;49.932;10.980;2023-03-01T09:40:43;31.25;;;24.50;;
29210;SDS011;16250;49.932;10.980;2023-03-01T09:43:23;30.17;;;23.92;;
29210;SDS011;16250;49.932;10.980;2023-03-01T09:45:52;29.50;;;23.17;;
29210;SDS011;16250;49.932;10.980;2023-03-01T09:48:20;27.55;;;23.35;;
29210;SDS011;16250;49.932;10.980;2023-03-01T09:50:48;28.23;;;22.85;;
29210;SDS011;16250;49.932;10.980;2023-03-01T09:53:22;26.27;;;22.67;;
29210;SDS011;16250;49.932;10.980;2023-03-01T10:01:15;28.15;;;22.67;;
29210;SDS011;16250;49.932;10.980;2023-03-01T10:04:10;26.55;;;23.50;;
29210;SDS011;16250;49.932;10.980;2023-03-01T10:09:36;25.45;;;21.83;;
29210;SDS011;16250;49.932;10.980;2023-03-01T10:12:04;26.65;;;22.10;;
29210;SDS011;16250;49.932;10.980;2023-03-01T10:17:02;25.02;;;21.40;;
29210;SDS011;16250;49.932;10.980;2023-03-01T10:19:42;26.08;;;21.88;;
29210;SDS011;16250;49.932;10.980;2023-03-01T10:22:19;25.80;;;21.27;;
29210;SDS011;16250;49.932;10.980;2023-03-01T10:24:46;24.38;;;19.98;;
29210;SDS011;16250;49.932;10.980;2023-03-01T10:27:22;28.48;;;21.73;;
29210;SDS011;16250;49.932;10.980;2023-03-01T10:30:10;24.67;;;21.63;;
29210;SDS011;16250;49.932;10.980;2023-03-01T10:32:41;25.70;;;21.52;;
29210;SDS011;16250;49.932;10.980;2023-03-01T10:35:20;27.02;;;21.98;;
29210;SDS011;16250;49.932;10.980;2023-03-01T10:37:58;28.75;;;22.70;;
29210;SDS011;16250;49.932;10.980;2023-03-01T10:40:34;27.17;;;22.27;;
29210;SDS011;16250;49.932;10.980;2023-03-01T10:43:04;29.38;;;23.40;;
29210;SDS011;16250;49.932;10.980;2023-03-01T10:48:24;26.60;;;21.90;;
29210;SDS011;16250;49.932;10.980;2023-03-01T10:53:25;26.58;;;22.33;;
29210;SDS011;16250;49.932;10.980;2023-03-01T10:56:08;25.80;;;22.73;;
29210;SDS011;16250;49.932;10.980;2023-03-01T10:58:38;26.70;;;23.77;;
29210;SDS011;16250;49.932;10.980;2023-03-01T11:01:08;29.30;;;23.35;;
29210;SDS011;16250;49.932;10.980;2023-03-01T11:06:31;28.45;;;22.73;;
29210;SDS011;16250;49.932;10.980;2023-03-01T11:08:57;27.30;;;22.77;;
29210;SDS011;16250;49.932;10.980;2023-03-01T11:11:38;29.42;;;23.35;;
29210;SDS011;16250;49.932;10.980;2023-03-01T11:14:15;26.70;;;21.42;;
29210;SDS011;16250;49.932;10.980;2023-03-01T11:16:43;25.27;;;22.60;;
29210;SDS011;16250;49.932;10.980;2023-03-01T11:21:36;26.60;;;20.60;;
29210;SDS011;16250;49.932;10.980;2023-03-01T11:24:11;27.27;;;21.98;;
29210;SDS011;16250;49.932;10.980;2023-03-01T11:26:42;23.45;;;19.90;;
29210;SDS011;16250;49.932;10.980;2023-03-01T11:29:16;24.02;;;20.77;;
29210;SDS011;16250;49.932;10.980;2023-03-01T11:31:50;23.52;;;20.55;;
29210;SDS011;16250;49.932;10.980;2023-03-01T11:34:17;23.98;;;21.35;;
29210;SDS011;16250;49.932;10.980;2023-03-01T11:36:48;25.33;;;22.55;;
29210;SDS011;16250;49.932;10.980;2023-03-01T11:39:27;27.17;;;21.45;;
29210;SDS011;16250;49.932;10.980;2023-03-01T11:42:00;26.30;;;20.48;;
29210;SDS011;16250;49.932;10.980;2023-03-01T11:44:29;27.60;;;22.38;;
29210;SDS011;16250;49.932;10.980;2023-03-01T11:49:43;25.08;;;21.50;;
29210;SDS011;16250;49.932;10.980;2023-03-01T12:03:46;24.02;;;20.55;;
29210;SDS011;16250;49.932;10.980;2023-03-01T12:06:35;25.98;;;20.58;;
29210;SDS011;16250;49.932;10.980;2023-03-01T12:09:15;26.13;;;20.73;;
29210;SDS011;16250;49.932;10.980;2023-03-01T12:17:07;23.10;;;19.55;;
29210;SDS011;16250;49.932;10.980;2023-03-01T12:22:50;27.00;;;19.40;;
29210;SDS011;16250;49.932;10.980;2023-03-01T12:25:28;25.52;;;19.02;;
29210;SDS011;16250;49.932;10.980;2023-03-01T12:41:31;25.90;;;18.85;;
29210;SDS011;16250;49.932;10.980;2023-03-01T12:52:23;23.23;;;18.00;;
29210;SDS011;16250;49.932;10.980;2023-03-01T12:54:54;25.02;;;17.73;;
29210;SDS011;16250;49.932;10.980;2023-03-01T12:57:29;23.48;;;18.30;;
29210;SDS011;16250;49.932;10.980;2023-03-01T13:00:05;24.70;;;18.75;;
29210;SDS011;16250;49.932;10.980;2023-03-01T13:02:40;21.85;;;18.23;;
29210;SDS011;16250;49.932;10.980;2023-03-01T13:05:31;23.67;;;17.75;;
29210;SDS011;16250;49.932;10.980;2023-03-01T13:13:19;23.05;;;17.50;;
29210;SDS011;16250;49.932;10.980;2023-03-01T13:15:46;21.83;;;16.45;;
29210;SDS011;16250;49.932;10.980;2023-03-01T13:23:12;21.58;;;15.65;;
29210;SDS011;16250;49.932;10.980;2023-03-01T13:26:06;20.63;;;15.85;;
29210;SDS011;16250;49.932;10.980;2023-03-01T13:33:48;17.98;;;14.73;;
29210;SDS011;16250;49.932;10.980;2023-03-01T13:39:26;17.38;;;13.68;;
29210;SDS011;16250;49.932;10.980;2023-03-01T13:41:57;19.48;;;14.65;;
29210;SDS011;16250;49.932;10.980;2023-03-01T13:46:55;16.05;;;13.32;;
29210;SDS011;16250;49.932;10.980;2023-03-01T13:49:23;16.98;;;13.52;;
29210;SDS011;16250;49.932;10.980;2023-03-01T13:51:52;15.77;;;13.20;;
29210;SDS011;16250;49.932;10.980;2023-03-01T13:54:23;18.08;;;13.00;;
29210;SDS011;16250;49.932;10.980;2023-03-01T13:56:51;17.23;;;13.70;;
29210;SDS011;16250;49.932;10.980;2023-03-01T13:59:18;17.52;;;13.02;;
29210;SDS011;16250;49.932;10.980;2023-03-01T14:01:44;15.73;;;12.98;;
29210;SDS011;16250;49.932;10.980;2023-03-01T14:04:24;17.67;;;14.10;;
29210;SDS011;16250;49.932;10.980;2023-03-01T14:06:52;16.60;;;13.38;;
29210;SDS011;16250;49.932;10.980;2023-03-01T14:09:39;16.37;;;12.73;;
29210;SDS011;16250;49.932;10.980;2023-03-01T14:12:53;15.43;;;13.00;;
29210;SDS011;16250;49.932;10.980;2023-03-01T14:22:55;18.75;;;14.18;;
29210;SDS011;16250;49.932;10.980;2023-03-01T14:25:24;15.48;;;13.80;;
29210;SDS011;16250;49.932;10.980;2023-03-01T14:27:56;17.38;;;13.75;;
29210;SDS011;16250;49.932;10.980;2023-03-01T14:30:27;17.30;;;14.18;;
29210;SDS011;16250;49.932;10.980;2023-03-01T14:32:57;16.60;;;14.30;;
29210;SDS011;16250;49.932;10.980;2023-03-01T14:35:25;17.73;;;14.65;;
29210;SDS011;16250;49.932;10.980;2023-03-01T14:37:55;18.45;;;14.82;;
29210;SDS011;16250;49.932;10.980;2023-03-01T14:40:22;15.90;;;14.05;;
29210;SDS011;16250;49.932;10.980;2023-03-01T14:42:56;17.63;;;14.60;;
29210;SDS011;16250;49.932;10.980;2023-03-01T14:45:23;19.23;;;14.15;;
29210;SDS011;16250;49.932;10.980;2023-03-01T14:47:50;18.55;;;14.30;;
29210;SDS011;16250;49.932;10.980;2023-03-01T14:50:24;19.30;;;14.40;;
29210;SDS011;16250;49.932;10.980;2023-03-01T14:52:58;18.15;;;14.63;;
29210;SDS011;16250;49.932;10.980;2023-03-01T14:55:32;17.50;;;13.73;;
29210;SDS011;16250;49.932;10.980;2023-03-01T14:57:59;19.88;;;14.45;;
29210;SDS011;16250;49.932;10.980;2023-03-01T15:00:28;17.88;;;15.13;;
29210;SDS011;16250;49.932;10.980;2023-03-01T15:02:56;17.35;;;14.02;;
29210;SDS011;16250;49.932;10.980;2023-03-01T15:05:27;19.33;;;14.93;;
29210;SDS011;16250;49.932;10.980;2023-03-01T15:07:54;20.80;;;15.10;;
29210;SDS011;16250;49.932;10.980;2023-03-01T15:10:21;17.38;;;14.85;;
29210;SDS011;16250;49.932;10.980;2023-03-01T15:12:48;18.55;;;15.10;;
29210;SDS011;16250;49.932;10.980;2023-03-01T15:18:04;16.48;;;14.73;;
29210;SDS011;16250;49.932;10.980;2023-03-01T15:20:31;17.48;;;14.52;;
29210;SDS011;16250;49.932;10.980;2023-03-01T15:23:00;17.85;;;15.32;;
29210;SDS011;16250;49.932;10.980;2023-03-01T15:25:26;20.73;;;16.00;;
29210;SDS011;16250;49.932;10.980;2023-03-01T15:27:53;18.88;;;15.73;;
29210;SDS011;16250;49.932;10.980;2023-03-01T15:30:24;18.67;;;15.15;;
29210;SDS011;16250;49.932;10.980;2023-03-01T15:35:53;17.65;;;15.73;;
29210;SDS011;16250;49.932;10.980;2023-03-01T15:41:30;20.25;;;16.48;;
29210;SDS011;16250;49.932;10.980;2023-03-01T15:43:57;19.23;;;15.32;;
29210;SDS011;16250;49.932;10.980;2023-03-01T15:46:38;20.95;;;16.85;;
29210;SDS011;16250;49.932;10.980;2023-03-01T15:49:05;18.02;;;15.60;;
29210;SDS011;16250;49.932;10.980;2023-03-01T15:51:32;20.20;;;17.27;;
29210;SDS011;16250;49.932;10.980;2023-03-01T15:54:01;21.52;;;16.58;;
29210;SDS011;16250;49.932;10.980;2023-03-01T15:56:31;20.85;;;16.65;;
29210;SDS011;16250;49.932;10.980;2023-03-01T15:58:59;18.85;;;15.98;;
29210;SDS011;16250;49.932;10.980;2023-03-01T16:01:26;22.67;;;15.68;;
29210;SDS011;16250;49.932;10.980;2023-03-01T16:03:51;21.60;;;17.67;;
29210;SDS011;16250;49.932;10.980;2023-03-01T16:06:18;20.40;;;17.15;;
29210;SDS011;16250;49.932;10.980;2023-03-01T16:08:44;20.88;;;17.02;;